This is the latest recevied weather packets stored in our database for station/object W8MRL. If no packets are shown the sender has not sent any weather packets the latest 10 day(s).
| Time | Temp. | Humidity | Pressure | Rain* | Wind** | Luminosity | Snow |
|---|---|---|---|---|---|---|---|
| 1777705260 | 2.78° C | 90% | 1021.2 hPa | 0 mm | - | - | - |
| 1777704367 | 3.33° C | 90% | 1021.4 hPa | 0 mm | - | - | - |
| 1777703461 | 3.33° C | 90% | 1021.5 hPa | 0 mm | - | - | - |
| 1777702571 | 2.78° C | 90% | 1021.6 hPa | 0 mm | - | - | - |
| 1777701654 | 2.78° C | 90% | 1021.8 hPa | 0 mm | - | - | - |
| 1777700753 | 2.78° C | 90% | 1021.9 hPa | 0 mm | - | - | - |
| 1777699860 | 3.33° C | 89% | 1021.8 hPa | 0 mm | - | - | - |
| 1777698949 | 3.89° C | 87% | 1021.7 hPa | 0 mm | - | - | - |
| 1777698048 | 3.89° C | 88% | 1021.8 hPa | 0 mm | - | - | - |
| 1777697146 | 3.89° C | 90% | 1022 hPa | 0 mm | - | - | - |
| 1777696252 | 3.89° C | 91% | 1021.8 hPa | 0 mm | - | - | - |
| 1777695351 | 3.89° C | 90% | 1021.8 hPa | 0 mm | - | - | - |
| 1777694441 | 3.33° C | 92% | 1021.8 hPa | 0 mm | - | - | - |
| 1777693544 | 3.89° C | 91% | 1021.8 hPa | 0 mm | - | - | - |
| 1777692639 | 3.89° C | 90% | 1021.7 hPa | 0 mm | - | - | - |
| 1777691737 | 3.89° C | 89% | 1021.7 hPa | 0 mm | - | - | - |
| 1777690835 | 4.44° C | 88% | 1021.7 hPa | 0 mm | - | - | - |
| 1777689932 | 5° C | 86% | 1021.5 hPa | 0 mm | - | - | - |
| 1777689029 | 5.56° C | 83% | 1021.7 hPa | 0 mm | - | - | - |
| 1777688128 | 6.67° C | 79% | 1021.5 hPa | 0 mm | - | - | - |
| 1777687226 | 7.22° C | 77% | 1021.3 hPa | 0 mm | - | - | - |
| 1777686327 | 7.78° C | 75% | 1021 hPa | 0 mm | - | - | - |
| 1777685422 | 8.33° C | 73% | 1020.8 hPa | 0 mm | - | - | - |
| 1777684524 | 8.33° C | 73% | 1020.5 hPa | 0 mm | - | - | - |
| 1777683619 | 8.33° C | 73% | 1020.2 hPa | 0 mm | - | - | - |
* Rain latest hour (hover to see other rain measurements)
** Current wind speed in m/s (hover to see current wind gust speed)